»·PEaware :: N441PW KGZ-CYXY

N441PW :: KGZ-CYXY

FLIGHT INFORMATION

Flight Status: Arrived
Operator: Privately registered:
United States
More flights under this callsign
Pilot: Stacy K. (11621)
Aircraft: CESSNA 404 TITAN
(C404)
More flights by this aircraft type
Origin: KGZ Glacier Creek
United States
Destination: CYXY Whitehorse Intl
Canada
More flights between these airports :: More routes between these airports
Route: DB JB
File this flight plan on PilotEdge
Remarks:
Altitude:
(Current/Filed)
11,500ft
Speed:
(Current/Filed)
190kts
Departed: 13-Jul-19 05:36 PM
Arrived: 13-Jul-19 06:49 PM
Distance/Time
Traveled:
216nm/1:13
Distance/Time
To Go:
Arrived

Flight Plot

Page will automatically refresh every two minutes.

Flight plan parsing failed; only flown route is shown


Map Options




Map Legend


Flown Route
Filed Route
Departure Airport
Arrival Airport
Navaid (VOR, NDB)
Fix

Horizontal Profiles

Position Reports

Time Latitude Longitude Heading Altitude Ground
Speed
13-Jul-19 17:29 61.453250 -142.377864 302 2355ft 0kts
13-Jul-19 17:30 61.453250 -142.377864 302 2355ft 0kts
13-Jul-19 17:31 61.453250 -142.377864 302 2355ft 0kts
13-Jul-19 17:32 61.453251 -142.377867 302 2355ft 0kts
13-Jul-19 17:33 61.452964 -142.377434 324 2354ft 0kts
13-Jul-19 17:34 61.453088 -142.377482 301 2354ft 0kts
13-Jul-19 17:36 61.461472 -142.402071 275 2796ft 107kts
13-Jul-19 17:37 61.460433 -142.483191 261 3882ft 156kts
13-Jul-19 17:38 61.457527 -142.567808 322 4825ft 162kts
13-Jul-19 17:39 61.502170 -142.567195 22 5644ft 169kts
13-Jul-19 17:40 61.544914 -142.524554 33 6446ft 171kts
13-Jul-19 17:41 61.576376 -142.451437 71 7247ft 173kts
13-Jul-19 17:42 61.570403 -142.353985 118 8053ft 171kts
13-Jul-19 17:43 61.548000 -142.264815 117 8853ft 174kts
13-Jul-19 17:44 61.522984 -142.177160 127 9656ft 175kts
13-Jul-19 17:45 61.486747 -142.109458 143 10458ft 176kts
13-Jul-19 17:46 61.453227 -142.035204 114 11265ft 179kts
13-Jul-19 17:47 61.444828 -141.931987 93 12075ft 181kts
13-Jul-19 17:48 61.442095 -141.827305 93 12874ft 177kts
13-Jul-19 17:49 61.467887 -141.747341 45 13469ft 170kts
13-Jul-19 17:50 61.476734 -141.652011 107 13495ft 176kts
13-Jul-19 17:51 61.457818 -141.553673 117 13506ft 197kts
13-Jul-19 17:51 61.437652 -141.465133 109 13500ft 205kts
13-Jul-19 17:53 61.428597 -141.326543 94 13499ft 207kts
13-Jul-19 17:54 61.425025 -141.206209 93 13498ft 208kts
13-Jul-19 17:54 61.422351 -141.105113 92 13488ft 209kts
13-Jul-19 17:56 61.417539 -140.964209 94 13501ft 209kts
13-Jul-19 17:57 61.413670 -140.843369 94 13495ft 208kts
13-Jul-19 17:57 61.410380 -140.743659 94 13741ft 199kts
13-Jul-19 17:59 61.405798 -140.611973 94 14521ft 193kts
13-Jul-19 17:59 61.402699 -140.519287 96 15098ft 191kts
13-Jul-19 18:00 61.398789 -140.407734 95 15746ft 193kts
13-Jul-19 18:02 61.394058 -140.277260 95 16491ft 192kts
13-Jul-19 18:02 61.390683 -140.185224 95 17033ft 192kts
13-Jul-19 18:03 61.386256 -140.071351 95 17488ft 204kts
13-Jul-19 18:04 61.381611 -139.950818 95 17494ft 211kts
13-Jul-19 18:05 61.376797 -139.828147 95 17494ft 212kts
13-Jul-19 18:06 61.371837 -139.705753 95 17494ft 213kts
13-Jul-19 18:07 61.366683 -139.582045 95 17486ft 214kts
13-Jul-19 18:08 61.361250 -139.453393 95 16847ft 229kts
13-Jul-19 18:09 61.355459 -139.320098 95 16159ft 230kts
13-Jul-19 18:10 61.349559 -139.187049 95 15473ft 231kts
13-Jul-19 18:11 61.343514 -139.053399 95 14785ft 231kts
13-Jul-19 18:12 61.335870 -138.921223 100 14098ft 230kts
13-Jul-19 18:13 61.323679 -138.791056 101 13411ft 228kts
13-Jul-19 18:14 61.311009 -138.661258 110 12722ft 228kts
13-Jul-19 18:15 61.294432 -138.533926 101 12066ft 229kts
13-Jul-19 18:16 61.281654 -138.405680 102 11521ft 223kts
13-Jul-19 18:17 61.267979 -138.283492 102 11485ft 215kts
13-Jul-19 18:18 61.254083 -138.158497 103 10809ft 224kts
13-Jul-19 18:19 61.239872 -138.031870 103 10115ft 224kts
13-Jul-19 18:20 61.225345 -137.906887 103 9413ft 221kts
13-Jul-19 18:21 61.211169 -137.782893 103 8715ft 220kts
13-Jul-19 18:22 61.197112 -137.659180 104 8026ft 218kts
13-Jul-19 18:23 61.182972 -137.539080 104 7544ft 210kts
13-Jul-19 18:24 61.169380 -137.424068 104 7497ft 201kts
13-Jul-19 18:25 61.156121 -137.311751 104 7500ft 200kts
13-Jul-19 18:26 61.142786 -137.199693 104 7499ft 200kts
13-Jul-19 18:27 61.129283 -137.087787 104 7498ft 200kts
13-Jul-19 18:28 61.115705 -136.976046 104 7500ft 200kts
13-Jul-19 18:29 61.102139 -136.865121 104 7501ft 199kts
13-Jul-19 18:30 61.088465 -136.754166 105 7498ft 198kts
13-Jul-19 18:31 61.074683 -136.643080 105 7499ft 200kts
13-Jul-19 18:32 61.060723 -136.531487 105 7499ft 200kts
13-Jul-19 18:33 61.046741 -136.420502 105 7498ft 200kts
13-Jul-19 18:34 61.032645 -136.309519 105 7495ft 200kts
13-Jul-19 18:35 61.019012 -136.202833 105 7975ft 184kts
13-Jul-19 18:36 61.005356 -136.096964 105 7929ft 206kts
13-Jul-19 18:37 60.990369 -135.981217 105 7502ft 205kts
13-Jul-19 18:38 60.975854 -135.870049 105 7499ft 199kts
13-Jul-19 18:39 60.961440 -135.760419 105 7499ft 198kts
13-Jul-19 18:40 60.946881 -135.650623 106 7364ft 204kts
13-Jul-19 18:41 60.931422 -135.534847 106 6680ft 211kts
13-Jul-19 18:42 60.915843 -135.418797 106 5995ft 210kts
13-Jul-19 18:43 60.900160 -135.303025 106 5308ft 209kts
13-Jul-19 18:44 60.875923 -135.198639 146 4623ft 204kts
13-Jul-19 18:45 60.823575 -135.155663 158 4030ft 200kts
13-Jul-19 18:46 60.774238 -135.117480 159 3550ft 169kts
13-Jul-19 18:47 60.733552 -135.085921 158 2590ft 147kts
13-Jul-19 18:48 60.707980 -135.066230 161 2321ft 31kts
13-Jul-19 18:49 60.702660 -135.061997 160 2321ft 23kts
13-Jul-19 18:50 60.703767 -135.066389 339 2321ft 20kts
13-Jul-19 18:51 60.708952 -135.070130 341 2321ft 18kts
13-Jul-19 18:52 60.713348 -135.073304 336 2321ft 18kts
13-Jul-19 18:53 60.714382 -135.075242 251 2321ft 0kts

Navigation Log

Ident Type
Flight plan parsing failed, navigation log unavailable